LYBE/BEG METAR and TAF weather

Enter ICAO airport designator
Station Type Date Time Source
LYBE METAR 2022/08/16 19:00 UTC NOAA

LYBE 161900Z 28007KT CAVOK 25/14 Q1010 NOSIG


Station Type Date Time Source
LYBE Decoded METAR 2022/08/16 19:00 UTC NOAA

Beograd / Surcin, Serbia and Montenegro (LYBE) 44-49N 020-17E 99M
Aug 16, 2022 - 03:00 PM EDT / 2022.08.16 1900 UTC
Wind: from the W (280 degrees) at 8 MPH (7 KT):0
Visibility: greater than 7 mile(s):0
Temperature: 77 F (25 C)
Dew Point: 57 F (14 C)
Relative Humidity: 50%
Pressure (altimeter): 29.83 in. Hg (1010 hPa)
ob: LYBE 161900Z 28007KT CAVOK 25/14 Q1010 NOSIG
cycle: 19

Station Type Date Time Source
LYBE TAF 2022/08/16 18:21 UTC NOAA

TAF LYBE 161700Z 1618/1718 27008KT CAVOK TX34/1713Z TN20/1703Z

Example: see airport list